Time;durP1;ratioP1;P1;durP2;ratioP2;P2;SDS_P1;SDS_P2;PMS_P1;PMS_P2;Temp;Humidity;BMP_temperature;BMP_pressure;BME280_temperature;BME280_humidity;BME280_pressure;Samples;Min_cycle;Max_cycle;Signal;HPM_P1;HPM_P2
2022/09/15 04:30:32;;;;;;;;;17.00;15.33;;;;;;;;5910886;22;45447;-67
2022/09/15 04:32:58;;;;;;;;;15.67;14.67;;;;;;;;5019144;28;46309;-68
2022/09/15 04:35:23;;;;;;;;;21.67;17.00;;;;;;;;5018708;28;45443;-68
2022/09/15 04:37:48;;;;;;;;;16.33;14.33;;;;;;;;5019830;28;45230;-68
2022/09/15 04:40:13;;;;;;;;;14.00;13.33;;;;;;;;5019220;28;45172;-68
2022/09/15 04:42:38;;;;;;;;;16.33;15.00;;;;;;;;5019302;28;45451;-68
2022/09/15 04:45:05;;;;;;;;;16.00;14.67;;;;;;;;5019104;28;45600;-68
2022/09/15 04:47:31;;;;;;;;;12.33;12.33;;;;;;;;5023712;28;45223;-68
2022/09/15 04:49:56;;;;;;;;;16.00;15.67;;;;;;;;5019602;28;45356;-69
2022/09/15 04:52:21;;;;;;;;;11.33;8.67;;;;;;;;5015064;28;45962;-68
2022/09/15 04:54:46;;;;;;;;;10.33;10.33;;;;;;;;5018673;28;45474;-68
2022/09/15 04:57:11;;;;;;;;;13.33;13.33;;;;;;;;5017963;28;45383;-68
2022/09/15 04:59:37;;;;;;;;;15.00;15.00;;;;;;;;5021084;28;45221;-68
2022/09/15 05:02:02;;;;;;;;;18.00;12.67;;;;;;;;5021923;28;46130;-68
2022/09/15 05:04:27;;;;;;;;;16.67;12.67;;;;;;;;5020084;28;45382;-68
2022/09/15 05:06:53;;;;;;;;;14.33;12.67;;;;;;;;5019997;28;45315;-68
2022/09/15 05:09:18;;;;;;;;;18.00;15.00;;;;;;;;5014871;28;45224;-68
2022/09/15 05:11:43;;;;;;;;;16.00;15.33;;;;;;;;5018353;28;45470;-68
2022/09/15 05:14:09;;;;;;;;;16.00;16.00;;;;;;;;5006029;28;46313;-68
2022/09/15 05:16:34;;;;;;;;;15.00;13.33;;;;;;;;5009367;28;45513;-68
2022/09/15 05:19:00;;;;;;;;;10.33;9.00;;;;;;;;5017027;28;45564;-68
2022/09/15 05:21:26;;;;;;;;;15.67;14.00;;;;;;;;5017599;28;46113;-68
2022/09/15 05:23:52;;;;;;;;;14.33;12.67;;;;;;;;5022773;28;45690;-68
2022/09/15 05:26:18;;;;;;;;;20.67;14.67;;;;;;;;5009356;28;45406;-69
2022/09/15 05:28:44;;;;;;;;;14.67;14.33;;;;;;;;5024810;28;45600;-69
2022/09/15 05:31:18;;;;;;;;;17.00;16.33;;;;;;;;5025207;28;45480;-69
2022/09/15 05:33:44;;;;;;;;;19.33;18.00;;;;;;;;5013680;28;45217;-67
2022/09/15 05:36:09;;;;;;;;;17.33;17.00;;;;;;;;5018475;28;45359;-68
2022/09/15 05:38:35;;;;;;;;;25.00;21.00;;;;;;;;5018661;28;46713;-68
2022/09/15 05:41:03;;;;;;;;;19.33;16.00;;;;;;;;5016492;28;45647;-68
2022/09/15 05:43:30;;;;;;;;;22.00;18.67;;;;;;;;5016376;28;45340;-68
2022/09/15 05:45:55;;;;;;;;;19.67;17.00;;;;;;;;5017934;28;45377;-69
2022/09/15 05:48:20;;;;;;;;;24.00;19.33;;;;;;;;5017374;28;45627;-68
2022/09/15 05:50:49;;;;;;;;;31.33;19.67;;;;;;;;5017662;28;45502;-68
2022/09/15 05:53:15;;;;;;;;;22.00;21.00;;;;;;;;5014726;28;45507;-68
2022/09/15 05:55:40;;;;;;;;;23.67;17.67;;;;;;;;5015190;28;45779;-66
2022/09/15 05:58:05;;;;;;;;;29.33;25.33;;;;;;;;5023763;28;45572;-65
2022/09/15 06:00:30;;;;;;;;;24.00;19.00;;;;;;;;5017353;28;45446;-66
2022/09/15 06:02:56;;;;;;;;;23.33;19.67;;;;;;;;5022755;28;45206;-68
2022/09/15 06:05:21;;;;;;;;;20.67;19.67;;;;;;;;5022813;28;45556;-67
2022/09/15 06:07:46;;;;;;;;;25.33;23.00;;;;;;;;5019135;28;45634;-68
2022/09/15 06:10:11;;;;;;;;;22.50;18.00;;;;;;;;5015089;28;46311;-68
2022/09/15 06:12:36;;;;;;;;;23.67;22.67;;;;;;;;5008339;28;45539;-69
2022/09/15 06:15:02;;;;;;;;;21.67;18.00;;;;;;;;5018580;28;45752;-69
2022/09/15 06:17:30;;;;;;;;;20.00;18.67;;;;;;;;5022903;28;45697;-69
2022/09/15 06:19:55;;;;;;;;;26.67;22.67;;;;;;;;5017745;28;47158;-69
2022/09/15 06:22:20;;;;;;;;;20.00;16.67;;;;;;;;5020769;28;45414;-67
2022/09/15 06:24:46;;;;;;;;;25.00;23.33;;;;;;;;5017225;28;45481;-69
2022/09/15 06:27:11;;;;;;;;;21.33;19.33;;;;;;;;5015955;28;45437;-69
2022/09/15 06:29:36;;;;;;;;;23.33;20.00;;;;;;;;5016108;28;46316;-68
2022/09/15 06:32:01;;;;;;;;;23.33;19.67;;;;;;;;5019635;28;45490;-69
2022/09/15 06:34:31;;;;;;;;;21.33;18.67;;;;;;;;5018573;28;45310;-68
2022/09/15 06:36:57;;;;;;;;;27.67;23.33;;;;;;;;5020674;28;45626;-68
2022/09/15 06:39:22;;;;;;;;;23.33;22.00;;;;;;;;5016842;28;45387;-68
2022/09/15 06:41:48;;;;;;;;;24.00;21.33;;;;;;;;5017886;28;45635;-69
2022/09/15 06:44:13;;;;;;;;;23.33;21.33;;;;;;;;5017198;28;45351;-69
2022/09/15 06:46:39;;;;;;;;;19.00;18.00;;;;;;;;5017862;28;45291;-69
2022/09/15 06:49:04;;;;;;;;;25.00;19.33;;;;;;;;5017036;28;45283;-70
2022/09/15 06:51:34;;;;;;;;;24.67;18.33;;;;;;;;5016653;28;45689;-70
2022/09/15 06:53:59;;;;;;;;;18.00;15.67;;;;;;;;5018071;28;45483;-70
2022/09/15 06:56:24;;;;;;;;;19.33;19.00;;;;;;;;5017584;28;45452;-70
2022/09/15 06:58:50;;;;;;;;;17.67;16.33;;;;;;;;5021188;28;46164;-70
2022/09/15 07:01:20;;;;;;;;;21.00;21.00;;;;;;;;5021193;28;45309;-70
2022/09/15 07:03:45;;;;;;;;;25.67;21.67;;;;;;;;5022373;28;45304;-70
2022/09/15 07:06:11;;;;;;;;;20.33;20.33;;;;;;;;5021767;28;45413;-70
2022/09/15 07:08:36;;;;;;;;;19.00;17.33;;;;;;;;5020382;28;46351;-70
2022/09/15 07:11:01;;;;;;;;;15.00;13.00;;;;;;;;5021487;28;45345;-70
2022/09/15 07:13:26;;;;;;;;;23.33;21.33;;;;;;;;5021386;28;45694;-70
2022/09/15 07:15:56;;;;;;;;;23.67;21.00;;;;;;;;5016506;28;45259;-72
2022/09/15 07:18:22;;;;;;;;;21.33;17.00;;;;;;;;5016346;28;47146;-71
2022/09/15 07:20:47;;;;;;;;;22.67;21.00;;;;;;;;5017310;28;45931;-70
2022/09/15 07:23:12;;;;;;;;;25.67;18.67;;;;;;;;5018611;28;45324;-71
2022/09/15 07:25:37;;;;;;;;;23.33;19.67;;;;;;;;5019626;28;45689;-70
2022/09/15 07:28:03;;;;;;;;;20.67;17.33;;;;;;;;5020576;28;45570;-70
2022/09/15 07:30:28;;;;;;;;;16.33;14.67;;;;;;;;5020669;28;45470;-70
2022/09/15 07:32:53;;;;;;;;;21.33;19.67;;;;;;;;5022089;28;45735;-71
2022/09/15 07:35:20;;;;;;;;;25.33;21.00;;;;;;;;5032276;28;45435;-71
2022/09/15 07:37:47;;;;;;;;;23.00;20.33;;;;;;;;5028206;28;46214;-71
2022/09/15 07:40:12;;;;;;;;;20.33;19.67;;;;;;;;5020977;28;45488;-70
2022/09/15 07:42:40;;;;;;;;;14.67;14.33;;;;;;;;5023559;28;45283;-71
2022/09/15 07:45:06;;;;;;;;;22.33;22.00;;;;;;;;5023387;28;45370;-70
2022/09/15 07:47:31;;;;;;;;;20.33;18.33;;;;;;;;5017664;28;46186;-71
2022/09/15 07:49:57;;;;;;;;;21.00;17.00;;;;;;;;5022813;28;45374;-71
2022/09/15 07:52:22;;;;;;;;;30.00;24.67;;;;;;;;5022563;28;45450;-71
2022/09/15 07:54:48;;;;;;;;;23.67;22.00;;;;;;;;5013792;28;45713;-70
2022/09/15 07:57:13;;;;;;;;;24.67;20.33;;;;;;;;5021141;28;45464;-71
2022/09/15 07:59:38;;;;;;;;;34.00;22.33;;;;;;;;5020322;28;45528;-71
2022/09/15 08:02:03;;;;;;;;;28.67;22.67;;;;;;;;5020414;28;45379;-71
2022/09/15 08:04:28;;;;;;;;;24.67;23.33;;;;;;;;5019363;28;45262;-71
2022/09/15 08:06:53;;;;;;;;;22.67;20.67;;;;;;;;5019582;28;45358;-71
2022/09/15 08:09:19;;;;;;;;;21.00;18.33;;;;;;;;5018394;28;45464;-71
2022/09/15 08:11:44;;;;;;;;;20.67;18.33;;;;;;;;5012703;28;46826;-71
2022/09/15 08:14:09;;;;;;;;;17.33;14.00;;;;;;;;5018281;28;45608;-71
2022/09/15 08:16:35;;;;;;;;;14.00;14.00;;;;;;;;5017957;28;46058;-71
2022/09/15 08:19:00;;;;;;;;;9.33;9.33;;;;;;;;5019205;28;45573;-71
2022/09/15 08:21:26;;;;;;;;;13.67;12.33;;;;;;;;5016123;28;45412;-71
2022/09/15 08:23:58;;;;;;;;;15.67;14.67;;;;;;;;5030573;28;45740;-70
2022/09/15 08:26:24;;;;;;;;;20.00;16.67;;;;;;;;5029402;28;46125;-71
2022/09/15 08:28:50;;;;;;;;;16.67;14.67;;;;;;;;5024076;28;45980;-71
2022/09/15 08:31:16;;;;;;;;;14.67;12.67;;;;;;;;5019205;28;45368;-71
2022/09/15 08:33:41;;;;;;;;;8.33;8.00;;;;;;;;5022295;28;45434;-71
2022/09/15 08:36:10;;;;;;;;;11.00;8.00;;;;;;;;5017638;28;45674;-71
2022/09/15 08:38:37;;;;;;;;;8.00;5.00;;;;;;;;5018976;28;45608;-71
2022/09/15 08:41:05;;;;;;;;;7.67;7.67;;;;;;;;5019467;28;45467;-71
2022/09/15 08:43:32;;;;;;;;;8.00;6.67;;;;;;;;5019754;28;45758;-72
2022/09/15 08:46:02;;;;;;;;;8.33;6.67;;;;;;;;5017839;28;46431;-70
2022/09/15 08:48:31;;;;;;;;;9.33;7.00;;;;;;;;5018626;28;45370;-71
2022/09/15 08:50:59;;;;;;;;;9.33;8.00;;;;;;;;5018990;28;45392;-71
2022/09/15 08:53:34;;;;;;;;;5.33;5.00;;;;;;;;5016046;28;46314;-71
2022/09/15 08:56:02;;;;;;;;;7.33;7.33;;;;;;;;5017144;28;46230;-72
2022/09/15 08:58:29;;;;;;;;;8.33;8.33;;;;;;;;5016673;28;45288;-72
2022/09/15 09:01:09;;;;;;;;;4.75;4.75;;;;;;;;5018459;28;45473;-72
2022/09/15 09:03:35;;;;;;;;;5.00;5.00;;;;;;;;5017012;28;45533;-72
2022/09/15 09:06:18;;;;;;;;;8.50;7.50;;;;;;;;5018302;28;46081;-72
2022/09/15 09:08:54;;;;;;;;;6.25;6.25;;;;;;;;5017761;28;45301;-72
2022/09/15 09:11:23;;;;;;;;;7.75;6.75;;;;;;;;5020394;28;45482;-72
2022/09/15 09:13:48;;;;;;;;;5.75;5.25;;;;;;;;5017735;28;45670;-72
2022/09/15 09:16:32;;;;;;;;;4.80;4.00;;;;;;;;5015293;28;45625;-72
2022/09/15 09:18:57;;;;;;;;;3.25;3.25;;;;;;;;5017349;28;45752;-72
2022/09/15 09:21:25;;;;;;;;;2.20;2.20;;;;;;;;5018686;28;45411;-72
2022/09/15 09:23:53;;;;;;;;;4.50;3.00;;;;;;;;5020107;28;45722;-72
2022/09/15 09:26:18;;;;;;;;;5.00;4.25;;;;;;;;5018005;28;45525;-73
2022/09/15 09:28:52;;;;;;;;;5.50;3.75;;;;;;;;5019028;28;45464;-73
2022/09/15 09:31:20;;;;;;;;;5.25;3.75;;;;;;;;5016066;28;45390;-73
2022/09/15 09:33:51;;;;;;;;;6.50;5.25;;;;;;;;5017883;28;45472;-73
2022/09/15 09:36:16;;;;;;;;;7.50;6.75;;;;;;;;5019819;28;46386;-73
2022/09/15 09:38:42;;;;;;;;;7.00;6.00;;;;;;;;5018277;28;45382;-73
2022/09/15 09:41:13;;;;;;;;;4.25;3.75;;;;;;;;5017130;28;47013;-73
2022/09/15 09:43:39;;;;;;;;;6.00;4.75;;;;;;;;5018175;28;45444;-73
2022/09/15 09:46:10;;;;;;;;;4.25;4.00;;;;;;;;5019047;28;45518;-73
2022/09/15 09:48:35;;;;;;;;;4.75;4.75;;;;;;;;5019632;28;45295;-72
2022/09/15 09:51:00;;;;;;;;;4.75;3.50;;;;;;;;5018282;28;45349;-72
2022/09/15 09:53:32;;;;;;;;;3.00;3.00;;;;;;;;5016549;28;45534;-73
2022/09/15 09:56:15;;;;;;;;;3.75;3.75;;;;;;;;5020220;28;45256;-73
2022/09/15 09:58:41;;;;;;;;;3.75;2.75;;;;;;;;5016663;28;45528;-72
2022/09/15 10:01:09;;;;;;;;;2.50;2.50;;;;;;;;5020888;28;45569;-74
2022/09/15 10:03:34;;;;;;;;;4.00;3.00;;;;;;;;5018982;28;45367;-72
2022/09/15 10:06:10;;;;;;;;;2.50;2.25;;;;;;;;5010581;28;47259;-73
2022/09/15 10:08:36;;;;;;;;;3.00;3.00;;;;;;;;5013887;28;45265;-73
2022/09/15 10:11:04;;;;;;;;;3.50;3.50;;;;;;;;5016131;28;45784;-74
2022/09/15 10:13:29;;;;;;;;;2.00;2.00;;;;;;;;5018137;28;45432;-74
2022/09/15 10:15:57;;;;;;;;;2.75;2.75;;;;;;;;5017978;28;45441;-73
2022/09/15 10:18:27;;;;;;;;;4.50;4.00;;;;;;;;5017088;28;45386;-74
2022/09/15 10:20:53;;;;;;;;;4.25;3.00;;;;;;;;5021775;28;45534;-73
2022/09/15 10:23:20;;;;;;;;;3.75;3.75;;;;;;;;5021759;28;45629;-75
2022/09/15 10:25:46;;;;;;;;;2.50;2.50;;;;;;;;5017934;28;46058;-74
2022/09/15 10:28:15;;;;;;;;;3.00;3.00;;;;;;;;5016917;28;46062;-75
2022/09/15 10:30:59;;;;;;;;;2.00;2.00;;;;;;;;5022548;28;45423;-74
2022/09/15 10:33:28;;;;;;;;;5.00;3.50;;;;;;;;5024981;28;46306;-75
2022/09/15 10:35:58;;;;;;;;;2.25;2.25;;;;;;;;5021637;28;45417;-74
2022/09/15 10:38:43;;;;;;;;;2.40;1.40;;;;;;;;5018685;28;45510;-74
2022/09/15 10:41:24;;;;;;;;;2.00;2.00;;;;;;;;5019679;28;45410;-75
2022/09/15 10:44:08;;;;;;;;;3.00;2.00;;;;;;;;5019591;28;45398;-75
2022/09/15 10:46:42;;;;;;;;;1.00;1.00;;;;;;;;5018751;28;45378;-75
2022/09/15 10:49:16;;;;;;;;;1.20;1.20;;;;;;;;5016129;28;45474;-74
2022/09/15 10:51:45;;;;;;;;;4.25;3.25;;;;;;;;5031834;28;45327;-74
2022/09/15 10:54:10;;;;;;;;;2.75;2.75;;;;;;;;5023112;28;45438;-75
2022/09/15 10:56:45;;;;;;;;;2.00;2.00;;;;;;;;5018191;28;46005;-74
2022/09/15 10:59:13;;;;;;;;;3.00;1.25;;;;;;;;5025041;28;45472;-75
2022/09/15 11:01:47;;;;;;;;;2.00;2.00;;;;;;;;5021145;28;45964;-74
2022/09/15 11:04:30;;;;;;;;;3.50;2.75;;;;;;;;5017807;28;45464;-74
2022/09/15 11:07:14;;;;;;;;;1.00;1.00;;;;;;;;5024965;28;45545;-74
2022/09/15 11:09:46;;;;;;;;;2.80;2.00;;;;;;;;5017712;28;45459;-74
2022/09/15 11:12:40;;;;;;;;;2.25;2.25;;;;;;;;5021211;28;45354;-74
2022/09/15 11:15:05;;;;;;;;;2.00;2.00;;;;;;;;5020008;28;45532;-74
2022/09/15 11:17:37;;;;;;;;;2.25;2.25;;;;;;;;5027405;28;45953;-74
2022/09/15 11:20:21;;;;;;;;;2.60;2.60;;;;;;;;5019350;28;45481;-73
2022/09/15 11:22:51;;;;;;;;;2.25;2.00;;;;;;;;5019843;28;45334;-74
2022/09/15 11:25:19;;;;;;;;;1.00;1.00;;;;;;;;5015680;28;46157;-74
2022/09/15 11:27:52;;;;;;;;;3.75;1.50;;;;;;;;5028812;28;46060;-75
2022/09/15 11:30:23;;;;;;;;;4.00;2.80;;;;;;;;5028447;28;45528;-73
2022/09/15 11:32:53;;;;;;;;;16.50;16.50;;;;;;;;5024168;28;45288;-74
2022/09/15 11:35:37;;;;;;;;;3.25;2.00;;;;;;;;5018014;28;45478;-74
2022/09/15 11:38:21;;;;;;;;;2.00;2.00;;;;;;;;5008556;28;45850;-74
2022/09/15 11:40:50;;;;;;;;;2.80;2.80;;;;;;;;5019616;28;45331;-74
2022/09/15 11:43:19;;;;;;;;;2.25;2.25;;;;;;;;5020862;28;45478;-74
2022/09/15 11:45:47;;;;;;;;;1.75;1.00;;;;;;;;5020318;28;45353;-74
2022/09/15 11:48:14;;;;;;;;;3.00;3.00;;;;;;;;5017912;28;45651;-75
2022/09/15 11:50:44;;;;;;;;;2.00;2.00;;;;;;;;5019687;28;45459;-74
2022/09/15 11:53:27;;;;;;;;;3.00;3.00;;;;;;;;5019200;28;45364;-74
2022/09/15 11:56:06;;;;;;;;;3.75;1.75;;;;;;;;5017130;28;45317;-74
2022/09/15 11:58:31;;;;;;;;;3.50;2.00;;;;;;;;5016088;28;47505;-75
2022/09/15 12:01:05;;;;;;;;;2.75;1.75;;;;;;;;5028872;28;45425;-74
2022/09/15 12:03:34;;;;;;;;;4.75;2.50;;;;;;;;5022844;28;45542;-74
2022/09/15 12:06:05;;;;;;;;;3.25;3.25;;;;;;;;5019079;28;45384;-74
2022/09/15 12:08:42;;;;;;;;;3.75;3.25;;;;;;;;5024211;28;47318;-74
2022/09/15 12:11:10;;;;;;;;;3.00;2.00;;;;;;;;5019316;28;45411;-73
2022/09/15 12:13:36;;;;;;;;;2.00;2.00;;;;;;;;5021462;28;45499;-74
2022/09/15 12:16:02;;;;;;;;;3.50;3.50;;;;;;;;5024432;28;45361;-75
2022/09/15 12:18:37;;;;;;;;;4.50;2.25;;;;;;;;5019362;28;46416;-74
2022/09/15 12:21:15;;;;;;;;;3.75;2.75;;;;;;;;5020704;28;45217;-75
2022/09/15 12:24:06;;;;;;;;;2.75;2.75;;;;;;;;5038395;28;45284;-74
2022/09/15 12:26:32;;;;;;;;;2.25;2.25;;;;;;;;5025211;28;45490;-74
2022/09/15 12:29:01;;;;;;;;;3.25;1.50;;;;;;;;5022090;28;46226;-74
2022/09/15 12:31:27;;;;;;;;;3.20;3.20;;;;;;;;5018890;28;45408;-74
2022/09/15 12:33:56;;;;;;;;;2.75;2.50;;;;;;;;5030231;28;45515;-75
2022/09/15 12:36:35;;;;;;;;;5.00;3.00;;;;;;;;5011521;28;45511;-74
2022/09/15 12:39:02;;;;;;;;;3.75;3.75;;;;;;;;5031006;28;46991;-74
2022/09/15 12:41:27;;;;;;;;;6.00;5.25;;;;;;;;5020104;28;45319;-74
2022/09/15 12:43:58;;;;;;;;;3.25;3.25;;;;;;;;5018272;28;45518;-75
2022/09/15 12:46:24;;;;;;;;;4.00;4.00;;;;;;;;5017094;28;45580;-73
2022/09/15 12:48:49;;;;;;;;;5.25;3.00;;;;;;;;5019249;28;46261;-73
2022/09/15 12:51:22;;;;;;;;;4.25;4.25;;;;;;;;5016816;28;45408;-74
2022/09/15 12:53:57;;;;;;;;;6.50;5.75;;;;;;;;5018212;28;45456;-74
2022/09/15 12:56:26;;;;;;;;;6.75;4.75;;;;;;;;5017897;28;45387;-74
2022/09/15 12:58:53;;;;;;;;;0.00;0.00;;;;;;;;5015320;28;46106;-74
2022/09/15 13:01:29;;;;;;;;;3.75;3.75;;;;;;;;5017563;28;45402;-74
2022/09/15 13:03:57;;;;;;;;;4.75;3.75;;;;;;;;5023015;28;45290;-74
2022/09/15 13:06:26;;;;;;;;;5.00;4.00;;;;;;;;5019224;28;45564;-73
2022/09/15 13:08:53;;;;;;;;;6.25;6.25;;;;;;;;5020429;28;45965;-74
2022/09/15 13:11:35;;;;;;;;;4.75;4.75;;;;;;;;5029378;28;45310;-73
2022/09/15 13:14:03;;;;;;;;;4.25;4.25;;;;;;;;5020772;28;45282;-74
2022/09/15 13:16:48;;;;;;;;;3.25;3.25;;;;;;;;5017463;28;45517;-73
2022/09/15 13:19:40;;;;;;;;;4.00;4.00;;;;;;;;5006721;28;46011;-74
2022/09/15 13:22:08;;;;;;;;;4.25;3.00;;;;;;;;5018238;28;45272;-75
2022/09/15 13:24:52;;;;;;;;;6.50;4.00;;;;;;;;5018345;28;45482;-74
2022/09/15 13:27:24;;;;;;;;;8.00;7.50;;;;;;;;5011640;28;46153;-74
2022/09/15 13:30:10;;;;;;;;;7.00;6.00;;;;;;;;5016540;28;47190;-75
2022/09/15 13:32:45;;;;;;;;;7.25;5.75;;;;;;;;4997039;28;45478;-74
2022/09/15 13:35:18;;;;;;;;;7.00;6.00;;;;;;;;5007561;28;45526;-74
2022/09/15 13:37:47;;;;;;;;;5.75;5.75;;;;;;;;5016735;28;45550;-74
2022/09/15 13:40:28;;;;;;;;;7.50;7.50;;;;;;;;5017174;28;45309;-75
2022/09/15 13:43:27;;;;;;;;;9.50;8.00;;;;;;;;5007671;28;45403;-75
2022/09/15 13:46:11;;;;;;;;;8.00;8.00;;;;;;;;5002622;28;45512;-75
2022/09/15 13:48:39;;;;;;;;;10.00;9.00;;;;;;;;5019053;28;45637;-74
2022/09/15 13:51:11;;;;;;;;;9.00;7.00;;;;;;;;5018958;28;46514;-74
2022/09/15 13:53:41;;;;;;;;;9.50;7.75;;;;;;;;5018042;28;45378;-74
2022/09/15 13:56:07;;;;;;;;;6.75;6.75;;;;;;;;5019481;28;45319;-74
2022/09/15 13:58:33;;;;;;;;;9.00;9.00;;;;;;;;5017380;28;45617;-74
2022/09/15 14:01:00;;;;;;;;;7.25;7.25;;;;;;;;5015985;28;46099;-74
2022/09/15 14:03:35;;;;;;;;;9.75;8.25;;;;;;;;5014448;28;45541;-74
2022/09/15 14:06:01;;;;;;;;;10.50;8.75;;;;;;;;5012388;28;45568;-74
2022/09/15 14:08:29;;;;;;;;;10.00;8.50;;;;;;;;5017679;28;45712;-74
2022/09/15 14:11:05;;;;;;;;;8.00;8.00;;;;;;;;5011802;28;45565;-74
2022/09/15 14:13:30;;;;;;;;;9.00;9.00;;;;;;;;5011720;28;45673;-75
2022/09/15 14:15:57;;;;;;;;;9.00;9.00;;;;;;;;5013182;28;45940;-75
2022/09/15 14:18:22;;;;;;;;;9.00;9.00;;;;;;;;5018328;28;45474;-74
2022/09/15 14:21:03;;;;;;;;;10.00;10.00;;;;;;;;5018771;28;45583;-74
2022/09/15 14:23:29;;;;;;;;;9.75;8.00;;;;;;;;5014625;28;45532;-74
2022/09/15 14:25:56;;;;;;;;;10.25;10.25;;;;;;;;5014903;28;45769;-74
2022/09/15 14:28:26;;;;;;;;;10.00;9.00;;;;;;;;5018820;28;45345;-74
2022/09/15 14:30:51;;;;;;;;;12.50;10.25;;;;;;;;5020556;28;46339;-74
2022/09/15 14:33:16;;;;;;;;;10.25;9.25;;;;;;;;5020404;28;45695;-74
2022/09/15 14:35:42;;;;;;;;;11.67;10.33;;;;;;;;5020729;28;45523;-73
2022/09/15 14:38:18;;;;;;;;;11.00;9.33;;;;;;;;5019771;28;45417;-73
2022/09/15 14:40:43;;;;;;;;;12.67;11.00;;;;;;;;5021401;28;45316;-74
2022/09/15 14:43:27;;;;;;;;;12.33;11.00;;;;;;;;5021066;28;45436;-74
2022/09/15 14:45:53;;;;;;;;;11.67;11.67;;;;;;;;5024260;28;45392;-74
2022/09/15 14:48:25;;;;;;;;;8.67;8.00;;;;;;;;5019627;28;45413;-75
2022/09/15 14:51:01;;;;;;;;;14.33;11.00;;;;;;;;5027028;28;46964;-75
2022/09/15 14:53:29;;;;;;;;;10.00;10.00;;;;;;;;5017206;28;45287;-75
2022/09/15 14:55:58;;;;;;;;;11.00;10.33;;;;;;;;5022295;28;46959;-74
2022/09/15 14:58:23;;;;;;;;;13.00;11.67;;;;;;;;5017247;28;45414;-74
2022/09/15 15:00:51;;;;;;;;;14.67;11.00;;;;;;;;5021938;28;45249;-74
2022/09/15 15:03:19;;;;;;;;;10.33;10.33;;;;;;;;5031700;28;45579;-74
2022/09/15 15:05:46;;;;;;;;;12.00;10.67;;;;;;;;5025074;28;45331;-74
2022/09/15 15:08:17;;;;;;;;;12.67;11.00;;;;;;;;5028091;28;45434;-74
2022/09/15 15:10:42;;;;;;;;;10.00;9.50;;;;;;;;5022215;28;47185;-75
2022/09/15 15:13:11;;;;;;;;;8.75;8.50;;;;;;;;5010277;28;45706;-73
2022/09/15 15:15:37;;;;;;;;;6.75;6.75;;;;;;;;5018761;28;45578;-73
2022/09/15 15:18:04;;;;;;;;;9.67;9.67;;;;;;;;5020537;28;45498;-74
2022/09/15 15:20:29;;;;;;;;;7.75;6.50;;;;;;;;5017385;28;46303;-73
2022/09/15 15:23:14;;;;;;;;;10.25;9.25;;;;;;;;5018287;28;45720;-74
2022/09/15 15:25:40;;;;;;;;;10.00;8.25;;;;;;;;5017915;28;45577;-74
2022/09/15 15:28:06;;;;;;;;;6.25;5.00;;;;;;;;5016672;28;45391;-73
2022/09/15 15:30:33;;;;;;;;;8.00;7.25;;;;;;;;5017396;28;47302;-74
2022/09/15 15:32:59;;;;;;;;;7.25;7.00;;;;;;;;5016854;28;45623;-73
2022/09/15 15:35:25;;;;;;;;;7.25;7.25;;;;;;;;5013050;28;46722;-74
2022/09/15 15:38:24;;;;;;;;;8.50;7.00;;;;;;;;5014704;28;45771;-74
2022/09/15 15:40:58;;;;;;;;;9.25;7.00;;;;;;;;5006024;28;46096;-73
2022/09/15 15:43:25;;;;;;;;;8.25;8.25;;;;;;;;5017061;28;45523;-75
2022/09/15 15:45:57;;;;;;;;;8.75;7.50;;;;;;;;5016367;28;45367;-76
2022/09/15 15:48:26;;;;;;;;;10.33;8.33;;;;;;;;5014784;28;45549;-75
2022/09/15 15:50:51;;;;;;;;;7.67;7.00;;;;;;;;5020275;28;47519;-74
2022/09/15 15:53:16;;;;;;;;;8.00;6.00;;;;;;;;5018927;28;45485;-74
2022/09/15 15:55:42;;;;;;;;;8.00;8.00;;;;;;;;5017932;28;46642;-72
2022/09/15 15:58:09;;;;;;;;;7.75;7.50;;;;;;;;5012640;28;45860;-73
2022/09/15 16:00:43;;;;;;;;;7.75;7.25;;;;;;;;5013779;28;45433;-72
2022/09/15 16:03:09;;;;;;;;;7.67;7.67;;;;;;;;5018710;28;45455;-75
2022/09/15 16:05:34;;;;;;;;;7.25;7.00;;;;;;;;5019408;28;45323;-73
2022/09/15 16:08:04;;;;;;;;;8.25;7.50;;;;;;;;5018691;28;45394;-73
2022/09/15 16:10:35;;;;;;;;;9.25;8.50;;;;;;;;5017850;28;45585;-72
2022/09/15 16:13:00;;;;;;;;;10.00;9.00;;;;;;;;5021839;28;45387;-72
2022/09/15 16:15:25;;;;;;;;;8.25;8.25;;;;;;;;5012845;28;45684;-72
2022/09/15 16:17:50;;;;;;;;;9.00;8.00;;;;;;;;5018364;28;45375;-73
2022/09/15 16:20:16;;;;;;;;;10.33;9.00;;;;;;;;5022547;28;45403;-73
2022/09/15 16:22:41;;;;;;;;;11.67;8.67;;;;;;;;5023285;28;45692;-73
2022/09/15 16:25:27;;;;;;;;;8.67;8.67;;;;;;;;5031678;28;45320;-73
2022/09/15 16:27:52;;;;;;;;;7.67;7.67;;;;;;;;5021904;28;45465;-73
2022/09/15 16:30:17;;;;;;;;;11.25;7.75;;;;;;;;5010063;28;46108;-73
2022/09/15 16:32:43;;;;;;;;;9.50;8.25;;;;;;;;5007422;28;46596;-72
2022/09/15 16:35:27;;;;;;;;;8.50;8.00;;;;;;;;5010861;28;45840;-73
2022/09/15 16:37:52;;;;;;;;;8.25;8.25;;;;;;;;5010843;28;45752;-73
2022/09/15 16:40:17;;;;;;;;;8.25;8.25;;;;;;;;5016224;28;48024;-72
2022/09/15 16:42:42;;;;;;;;;10.67;9.33;;;;;;;;5021091;28;45505;-71
2022/09/15 16:45:24;;;;;;;;;7.25;7.25;;;;;;;;5018954;28;45611;-72
2022/09/15 16:47:49;;;;;;;;;6.50;6.25;;;;;;;;5013186;28;45561;-73
2022/09/15 16:50:14;;;;;;;;;8.25;7.00;;;;;;;;5008243;28;45941;-72
2022/09/15 16:52:39;;;;;;;;;7.75;7.75;;;;;;;;5014146;28;45320;-74
2022/09/15 16:55:19;;;;;;;;;8.00;8.00;;;;;;;;5012430;28;45442;-74
2022/09/15 16:57:44;;;;;;;;;10.75;7.75;;;;;;;;5017170;28;45405;-76
2022/09/15 17:00:10;;;;;;;;;10.00;8.25;;;;;;;;5020524;28;46280;-75
2022/09/15 17:02:35;;;;;;;;;9.00;9.00;;;;;;;;5018949;28;45562;-74
2022/09/15 17:05:00;;;;;;;;;6.33;4.67;;;;;;;;5023708;28;45623;-74
2022/09/15 17:07:25;;;;;;;;;9.67;8.00;;;;;;;;5024676;28;45498;-74
2022/09/15 17:09:51;;;;;;;;;9.00;9.00;;;;;;;;5019905;28;45507;-74
2022/09/15 17:12:16;;;;;;;;;8.00;6.67;;;;;;;;5023693;28;46478;-74
2022/09/15 17:14:41;;;;;;;;;10.00;8.00;;;;;;;;5018940;28;45379;-72
2022/09/15 17:17:21;;;;;;;;;9.67;8.33;;;;;;;;5015390;28;45505;-72
2022/09/15 17:19:46;;;;;;;;;9.00;9.00;;;;;;;;5011155;28;46511;-73
2022/09/15 17:22:12;;;;;;;;;7.33;7.00;;;;;;;;5018282;28;45331;-70
2022/09/15 17:24:37;;;;;;;;;7.00;7.00;;;;;;;;5024828;28;45514;-69
2022/09/15 17:27:02;;;;;;;;;12.33;10.00;;;;;;;;5015766;28;45925;-69
2022/09/15 17:29:27;;;;;;;;;7.33;7.00;;;;;;;;5020296;28;46157;-69
2022/09/15 17:31:52;;;;;;;;;6.00;6.00;;;;;;;;5022591;28;45627;-70
2022/09/15 17:34:18;;;;;;;;;9.00;7.67;;;;;;;;5017445;28;45585;-69
2022/09/15 17:36:44;;;;;;;;;8.00;8.00;;;;;;;;5013775;28;45538;-68
2022/09/15 17:39:09;;;;;;;;;7.67;7.67;;;;;;;;5017897;28;46332;-68
2022/09/15 17:41:34;;;;;;;;;7.00;6.00;;;;;;;;5015450;28;45490;-68
2022/09/15 17:44:00;;;;;;;;;7.33;6.67;;;;;;;;5022671;28;45674;-69
2022/09/15 17:46:25;;;;;;;;;9.00;8.00;;;;;;;;5010400;28;45479;-68
2022/09/15 17:48:50;;;;;;;;;9.00;6.33;;;;;;;;5018386;28;46017;-68
2022/09/15 17:51:16;;;;;;;;;6.33;6.33;;;;;;;;5016166;28;45439;-68
2022/09/15 17:53:41;;;;;;;;;4.33;4.33;;;;;;;;5016917;28;45796;-69
2022/09/15 17:56:06;;;;;;;;;6.00;5.00;;;;;;;;5016378;28;45446;-68
2022/09/15 17:58:32;;;;;;;;;8.67;5.67;;;;;;;;5016596;28;46307;-68
2022/09/15 18:00:58;;;;;;;;;7.00;5.67;;;;;;;;5013557;28;45682;-69
2022/09/15 18:03:27;;;;;;;;;7.00;7.00;;;;;;;;5016463;28;45813;-68
2022/09/15 18:05:57;;;;;;;;;7.00;7.00;;;;;;;;5014948;28;45527;-67
2022/09/15 18:08:22;;;;;;;;;8.67;8.67;;;;;;;;5016356;28;47040;-68
2022/09/15 18:10:48;;;;;;;;;6.00;6.00;;;;;;;;5016252;28;45463;-70
2022/09/15 18:13:14;;;;;;;;;4.33;4.00;;;;;;;;5014980;28;45733;-68
2022/09/15 18:15:40;;;;;;;;;8.33;5.00;;;;;;;;5014629;28;45690;-68
2022/09/15 18:18:07;;;;;;;;;7.00;5.00;;;;;;;;5018655;28;45922;-68
2022/09/15 18:20:33;;;;;;;;;6.00;6.00;;;;;;;;5016430;28;45428;-68
2022/09/15 18:22:59;;;;;;;;;6.67;4.67;;;;;;;;5012282;28;45637;-68
2022/09/15 18:25:27;;;;;;;;;3.00;3.00;;;;;;;;5014460;28;45569;-68
2022/09/15 18:27:52;;;;;;;;;8.00;6.33;;;;;;;;5016753;28;46282;-68
2022/09/15 18:30:19;;;;;;;;;4.33;4.33;;;;;;;;5013117;28;45550;-68
2022/09/15 18:32:44;;;;;;;;;4.00;4.00;;;;;;;;5005907;28;45522;-69
2022/09/15 18:35:10;;;;;;;;;4.00;4.00;;;;;;;;5013381;28;45795;-68
2022/09/15 18:37:36;;;;;;;;;6.00;5.00;;;;;;;;5017126;28;46154;-69
2022/09/15 18:40:02;;;;;;;;;5.00;5.00;;;;;;;;5016438;28;45534;-67
2022/09/15 18:42:27;;;;;;;;;5.00;5.00;;;;;;;;5016281;28;45466;-68
2022/09/15 18:44:52;;;;;;;;;3.67;3.67;;;;;;;;5011982;28;45475;-68
2022/09/15 18:47:18;;;;;;;;;3.00;3.00;;;;;;;;5012810;28;46216;-68
2022/09/15 18:49:43;;;;;;;;;4.00;3.33;;;;;;;;5018084;28;45212;-68
2022/09/15 18:52:08;;;;;;;;;5.67;5.67;;;;;;;;5015586;28;45701;-68
2022/09/15 18:54:35;;;;;;;;;4.00;2.67;;;;;;;;5020599;28;45543;-68
2022/09/15 18:57:00;;;;;;;;;2.67;2.67;;;;;;;;5019780;28;46322;-67
2022/09/15 18:59:25;;;;;;;;;5.00;5.00;;;;;;;;5017955;28;45611;-67
2022/09/15 19:01:51;;;;;;;;;6.00;4.75;;;;;;;;5017509;28;45621;-67
2022/09/15 19:04:16;;;;;;;;;5.25;5.25;;;;;;;;5017375;28;45570;-67
2022/09/15 19:06:41;;;;;;;;;4.00;4.00;;;;;;;;5020604;28;46270;-68
2022/09/15 19:09:06;;;;;;;;;3.25;3.25;;;;;;;;5018577;28;45411;-68
2022/09/15 19:11:32;;;;;;;;;6.33;5.33;;;;;;;;5019591;28;45545;-67